createdAt,value
2024-02-03T00:00:22.082Z,9.38
2024-02-03T00:01:22.012Z,9.38
2024-02-03T00:02:22.071Z,9.36
2024-02-03T00:03:22.003Z,9.33
2024-02-03T00:04:22.028Z,9.33
2024-02-03T00:05:21.953Z,9.31
2024-02-03T00:06:21.992Z,9.29
2024-02-03T00:07:22.168Z,9.28
2024-02-03T00:08:21.984Z,9.24
2024-02-03T00:09:22.033Z,9.24
2024-02-03T00:10:21.959Z,9.24
2024-02-03T00:11:23.935Z,9.21
2024-02-03T00:12:22.061Z,9.21
2024-02-03T00:13:21.927Z,9.20
2024-02-03T00:14:21.871Z,9.21
2024-02-03T00:15:21.928Z,9.21
2024-02-03T00:16:21.949Z,9.20
2024-02-03T00:17:21.950Z,9.21
2024-02-03T00:18:22.045Z,9.23
2024-02-03T00:19:22.010Z,9.23
2024-02-03T00:20:21.820Z,9.26
2024-02-03T00:21:21.951Z,9.24
2024-02-03T00:22:21.922Z,9.26
2024-02-03T00:23:21.823Z,9.28
2024-02-03T00:24:21.865Z,9.28
2024-02-03T00:25:21.772Z,9.28
2024-02-03T00:26:21.762Z,9.29
2024-02-03T00:27:21.909Z,9.31
2024-02-03T00:28:21.734Z,9.31
2024-02-03T00:29:21.761Z,9.31
2024-02-03T00:30:21.777Z,9.33
2024-02-03T00:31:21.738Z,9.33
2024-02-03T00:32:21.903Z,9.35
2024-02-03T00:33:21.928Z,9.35
2024-02-03T00:34:21.856Z,9.36
2024-02-03T00:35:21.710Z,9.32
2024-02-03T00:36:21.758Z,9.29
2024-02-03T00:37:21.992Z,9.28
2024-02-03T00:38:21.659Z,9.24
2024-02-03T00:39:21.770Z,9.26
2024-02-03T00:40:21.626Z,9.23
2024-02-03T00:41:21.698Z,9.23
2024-02-03T00:42:21.816Z,9.21
2024-02-03T00:43:21.609Z,9.17
2024-02-03T00:44:21.629Z,9.17
2024-02-03T00:45:21.681Z,9.17
2024-02-03T00:46:21.648Z,9.15
2024-02-03T00:47:21.732Z,9.15
2024-02-03T00:48:21.719Z,9.17
2024-02-03T00:49:21.699Z,9.18
2024-02-03T00:50:21.568Z,9.17
2024-02-03T00:51:21.569Z,9.15
2024-02-03T00:52:21.636Z,9.17
2024-02-03T00:53:21.482Z,9.13
2024-02-03T00:54:21.554Z,9.13
2024-02-03T00:55:21.482Z,9.13
2024-02-03T00:56:21.491Z,9.11
2024-02-03T00:57:21.594Z,9.13
2024-02-03T00:58:21.488Z,9.10
2024-02-03T00:59:21.490Z,9.08
2024-02-03T01:00:21.477Z,9.10
2024-02-03T01:01:21.489Z,9.08
2024-02-03T01:02:21.541Z,9.04
2024-02-03T01:03:21.475Z,9.04
2024-02-03T01:04:21.528Z,9.04
2024-02-03T01:05:21.445Z,9.04
2024-02-03T01:06:21.423Z,9.02
2024-02-03T01:07:21.485Z,9.02
2024-02-03T01:08:21.330Z,9.02
2024-02-03T01:09:21.584Z,8.99
2024-02-03T01:10:21.411Z,8.99
2024-02-03T01:11:21.394Z,8.98
2024-02-03T01:12:21.507Z,8.95
2024-02-03T01:13:21.320Z,8.94
2024-02-03T01:14:21.343Z,8.92
2024-02-03T01:15:21.381Z,8.92
2024-02-03T01:16:21.345Z,8.92
2024-02-03T01:17:21.348Z,8.89
2024-02-03T01:18:21.513Z,8.89
2024-02-03T01:19:21.331Z,8.87
2024-02-03T01:20:21.303Z,8.86
2024-02-03T01:21:21.320Z,8.84
2024-02-03T01:22:21.292Z,8.83
2024-02-03T01:23:21.266Z,8.81
2024-02-03T01:24:21.278Z,8.81
2024-02-03T01:25:21.249Z,8.80
2024-02-03T01:26:21.189Z,8.77
2024-02-03T01:27:21.571Z,8.77
2024-02-03T01:28:21.218Z,8.76
2024-02-03T01:29:21.180Z,8.76
2024-02-03T01:30:21.212Z,8.73
2024-02-03T01:31:21.202Z,8.71
2024-02-03T01:32:21.249Z,8.70
2024-02-03T01:33:21.236Z,8.70
2024-02-03T01:34:21.191Z,8.68
2024-02-03T01:35:21.152Z,8.66
2024-02-03T01:36:21.198Z,8.66
2024-02-03T01:37:21.157Z,8.66
2024-02-03T01:38:21.104Z,8.63
2024-02-03T01:39:21.177Z,8.62
2024-02-03T01:40:21.119Z,8.62
2024-02-03T01:41:21.004Z,8.58
2024-02-03T01:42:21.204Z,8.55
2024-02-03T01:43:21.112Z,8.55
2024-02-03T01:44:21.288Z,8.55
2024-02-03T01:45:21.227Z,8.55
2024-02-03T01:46:21.016Z,8.53
2024-02-03T01:47:21.215Z,8.52
2024-02-03T01:48:21.191Z,8.50
2024-02-03T01:49:21.124Z,8.50
2024-02-03T01:50:21.004Z,8.48
2024-02-03T01:51:21.102Z,8.47
2024-02-03T01:52:21.089Z,8.45
2024-02-03T01:53:20.949Z,8.43
2024-02-03T01:54:20.997Z,8.43
2024-02-03T01:55:20.960Z,8.37
2024-02-03T01:56:20.943Z,8.36
2024-02-03T01:57:21.009Z,8.33
2024-02-03T01:58:20.937Z,8.29
2024-02-03T01:59:20.907Z,8.23
2024-02-03T02:00:20.899Z,8.25
2024-02-03T02:01:21.093Z,8.23
2024-02-03T02:02:20.959Z,8.19
2024-02-03T02:03:21.023Z,8.19
2024-02-03T02:04:20.973Z,8.16
2024-02-03T02:05:20.835Z,8.15
2024-02-03T02:06:21.132Z,8.12
2024-02-03T02:07:20.961Z,8.10
2024-02-03T02:08:20.878Z,8.08
2024-02-03T02:09:20.820Z,8.08
2024-02-03T02:10:20.804Z,8.05
2024-02-03T02:11:20.796Z,8.02
2024-02-03T02:12:20.895Z,7.97
2024-02-03T02:13:20.838Z,7.98
2024-02-03T02:14:20.745Z,7.98
2024-02-03T02:15:20.910Z,7.97
2024-02-03T02:16:20.679Z,7.95
2024-02-03T02:17:20.818Z,7.92
2024-02-03T02:18:20.886Z,7.92
2024-02-03T02:19:20.914Z,7.89
2024-02-03T02:20:20.728Z,7.89
2024-02-03T02:21:20.716Z,7.86
2024-02-03T02:22:20.648Z,7.82
2024-02-03T02:23:20.624Z,7.82
2024-02-03T02:24:20.673Z,7.80
2024-02-03T02:25:20.654Z,7.75
2024-02-03T02:26:20.734Z,7.75
2024-02-03T02:27:20.758Z,7.77
2024-02-03T02:28:20.549Z,7.74
2024-02-03T02:29:20.676Z,7.74
2024-02-03T02:30:20.701Z,7.74
2024-02-03T02:31:20.704Z,7.74
2024-02-03T02:32:20.636Z,7.74
2024-02-03T02:33:20.767Z,7.74
2024-02-03T02:34:20.821Z,7.74
2024-02-03T02:35:20.616Z,7.72
2024-02-03T02:36:20.695Z,7.71
2024-02-03T02:37:20.603Z,7.69
2024-02-03T02:38:20.558Z,7.68
2024-02-03T02:39:20.806Z,7.69
2024-02-03T02:40:20.499Z,7.68
2024-02-03T02:41:20.581Z,7.68
2024-02-03T02:42:20.523Z,7.64
2024-02-03T02:43:20.570Z,7.64
2024-02-03T02:44:20.530Z,7.63
2024-02-03T02:45:20.502Z,7.60
2024-02-03T02:46:20.582Z,7.57
2024-02-03T02:47:20.485Z,7.57
2024-02-03T02:48:20.656Z,7.55
2024-02-03T02:49:20.531Z,7.52
2024-02-03T02:50:20.455Z,7.50
2024-02-03T02:51:20.532Z,7.49
2024-02-03T02:52:20.430Z,7.45
2024-02-03T02:53:20.338Z,7.40
2024-02-03T02:54:20.387Z,7.37
2024-02-03T02:55:20.398Z,7.34
2024-02-03T02:56:20.470Z,7.28
2024-02-03T02:57:20.352Z,7.25
2024-02-03T02:58:20.340Z,7.23
2024-02-03T02:59:20.454Z,7.20
2024-02-03T03:00:20.363Z,7.16
2024-02-03T03:01:20.572Z,7.13
2024-02-03T03:02:20.293Z,7.12
2024-02-03T03:03:20.479Z,7.13
2024-02-03T03:04:20.599Z,7.10
2024-02-03T03:05:20.267Z,7.07
2024-02-03T03:06:20.369Z,7.05
2024-02-03T03:07:20.310Z,7.03
2024-02-03T03:08:20.309Z,6.99
2024-02-03T03:09:20.380Z,6.97
2024-02-03T03:10:20.268Z,6.95
2024-02-03T03:11:20.328Z,6.91
2024-02-03T03:12:20.248Z,6.89
2024-02-03T03:13:20.242Z,6.87
2024-02-03T03:14:20.246Z,6.85
2024-02-03T03:15:20.279Z,6.81
2024-02-03T03:16:20.249Z,6.77
2024-02-03T03:17:20.163Z,6.73
2024-02-03T03:18:20.433Z,6.69
2024-02-03T03:19:20.274Z,6.66
2024-02-03T03:20:20.184Z,6.59
2024-02-03T03:21:20.280Z,6.56
2024-02-03T03:22:20.174Z,6.55
2024-02-03T03:23:20.178Z,6.52
2024-02-03T03:24:20.095Z,6.49
2024-02-03T03:25:20.133Z,6.44
2024-02-03T03:26:20.172Z,6.46
2024-02-03T03:27:20.218Z,6.43
2024-02-03T03:28:20.086Z,6.40
2024-02-03T03:29:20.148Z,6.40
2024-02-03T03:30:20.117Z,6.40
2024-02-03T03:31:20.168Z,6.40
2024-02-03T03:32:20.089Z,6.40
2024-02-03T03:33:20.120Z,6.38
2024-02-03T03:34:20.211Z,6.40
2024-02-03T03:35:20.000Z,6.40
2024-02-03T03:36:20.160Z,6.38
2024-02-03T03:37:19.999Z,6.41
2024-02-03T03:38:19.968Z,6.40
2024-02-03T03:39:20.042Z,6.43
2024-02-03T03:40:19.993Z,6.43
2024-02-03T03:41:20.075Z,6.44
2024-02-03T03:42:19.994Z,6.49
2024-02-03T03:43:19.910Z,6.49
2024-02-03T03:44:19.973Z,6.54
2024-02-03T03:45:19.913Z,6.54
2024-02-03T03:46:19.983Z,6.55
2024-02-03T03:47:19.917Z,6.56
2024-02-03T03:48:20.255Z,6.58
2024-02-03T03:49:20.020Z,6.58
2024-02-03T03:50:19.921Z,6.59
2024-02-03T03:51:19.979Z,6.62
2024-02-03T03:52:19.875Z,6.64
2024-02-03T03:53:19.831Z,6.64
2024-02-03T03:54:19.908Z,6.67
2024-02-03T03:55:19.842Z,6.70
2024-02-03T03:56:19.906Z,6.70
2024-02-03T03:57:19.883Z,6.71
2024-02-03T03:58:19.750Z,6.73
2024-02-03T03:59:19.793Z,6.76
2024-02-03T04:00:19.808Z,6.79
2024-02-03T04:01:19.883Z,6.79
2024-02-03T04:02:19.742Z,6.79
2024-02-03T04:03:19.695Z,6.80
2024-02-03T04:04:19.784Z,6.80
2024-02-03T04:05:19.744Z,6.81
2024-02-03T04:06:19.915Z,6.84
2024-02-03T04:07:19.741Z,6.85
2024-02-03T04:08:19.679Z,6.87
2024-02-03T04:09:19.711Z,6.88
2024-02-03T04:10:19.588Z,6.92
2024-02-03T04:11:19.724Z,6.94
2024-02-03T04:12:19.662Z,6.95
2024-02-03T04:13:19.660Z,6.98
2024-02-03T04:14:19.675Z,6.98
2024-02-03T04:15:19.763Z,6.99
2024-02-03T04:16:19.658Z,7.06
2024-02-03T04:17:19.676Z,7.07
2024-02-03T04:18:19.787Z,7.09
2024-02-03T04:19:19.681Z,7.12
2024-02-03T04:20:19.730Z,7.12
2024-02-03T04:21:19.730Z,7.15
2024-02-03T04:22:19.613Z,7.13
2024-02-03T04:23:19.574Z,7.15
2024-02-03T04:24:19.585Z,7.13
2024-02-03T04:25:19.602Z,7.15
2024-02-03T04:26:19.609Z,7.16
2024-02-03T04:27:19.534Z,7.15
2024-02-03T04:28:19.476Z,7.13
2024-02-03T04:29:19.531Z,7.13
2024-02-03T04:30:23.102Z,7.13
2024-02-03T04:31:19.568Z,7.12
2024-02-03T04:32:19.517Z,7.12
2024-02-03T04:33:19.617Z,7.12
2024-02-03T04:34:19.766Z,7.13
2024-02-03T04:35:19.445Z,7.13
2024-02-03T04:36:19.620Z,7.16
2024-02-03T04:37:19.424Z,7.16
2024-02-03T04:38:19.396Z,7.16
2024-02-03T04:39:19.493Z,7.15
2024-02-03T04:40:19.435Z,7.16
2024-02-03T04:41:19.439Z,7.15
2024-02-03T04:42:19.434Z,7.15
2024-02-03T04:43:19.398Z,7.12
2024-02-03T04:44:19.323Z,7.12
2024-02-03T04:45:19.449Z,7.10
2024-02-03T04:46:19.408Z,7.12
2024-02-03T04:47:19.325Z,7.12
2024-02-03T04:48:19.408Z,7.12
2024-02-03T04:49:19.461Z,7.09
2024-02-03T04:50:19.323Z,7.09
2024-02-03T04:51:19.472Z,7.09
2024-02-03T04:52:19.343Z,7.07
2024-02-03T04:53:19.278Z,7.07
2024-02-03T04:54:19.277Z,7.09
2024-02-03T04:55:19.245Z,7.07
2024-02-03T04:56:19.321Z,7.09
2024-02-03T04:57:19.248Z,7.10
2024-02-03T04:58:19.219Z,7.12
2024-02-03T04:59:19.242Z,7.15
2024-02-03T05:00:19.372Z,7.17
2024-02-03T05:01:19.293Z,7.21
2024-02-03T05:02:19.176Z,7.23
2024-02-03T05:03:19.351Z,7.24
2024-02-03T05:04:19.263Z,7.25
2024-02-03T05:05:19.169Z,7.25
2024-02-03T05:06:19.397Z,7.27
2024-02-03T05:07:19.147Z,7.27
2024-02-03T05:08:19.111Z,7.27
2024-02-03T05:09:19.129Z,7.27
2024-02-03T05:10:19.112Z,7.27
2024-02-03T05:11:19.223Z,7.30
2024-02-03T05:12:19.108Z,7.28
2024-02-03T05:13:19.055Z,7.28
2024-02-03T05:14:19.113Z,7.27
2024-02-03T05:15:19.142Z,7.25
2024-02-03T05:16:19.164Z,7.24
2024-02-03T05:17:19.120Z,7.24
2024-02-03T05:18:19.225Z,7.24
2024-02-03T05:19:19.089Z,7.21
2024-02-03T05:20:18.992Z,7.20
2024-02-03T05:21:19.220Z,7.20
2024-02-03T05:22:18.984Z,7.20
2024-02-03T05:23:19.085Z,7.17
2024-02-03T05:24:19.003Z,7.12
2024-02-03T05:25:18.973Z,7.10
2024-02-03T05:26:19.191Z,7.10
2024-02-03T05:27:19.012Z,7.09
2024-02-03T05:28:18.973Z,7.06
2024-02-03T05:29:18.977Z,7.06
2024-02-03T05:30:18.982Z,7.05
2024-02-03T05:31:19.062Z,7.02
2024-02-03T05:32:18.906Z,7.03
2024-02-03T05:33:19.175Z,7.03
2024-02-03T05:34:18.929Z,7.02
2024-02-03T05:35:18.913Z,6.99
2024-02-03T05:36:19.062Z,6.99
2024-02-03T05:37:18.853Z,6.99
2024-02-03T05:38:18.871Z,7.03
2024-02-03T05:39:19.045Z,7.05
2024-02-03T05:40:18.961Z,7.03
2024-02-03T05:41:18.907Z,6.99
2024-02-03T05:42:21.405Z,6.99
2024-02-03T05:43:18.806Z,6.99
2024-02-03T05:44:18.779Z,7.02
2024-02-03T05:45:18.972Z,7.03
2024-02-03T05:46:18.881Z,7.03
2024-02-03T05:47:18.745Z,7.06
2024-02-03T05:48:18.990Z,7.07
2024-02-03T05:49:18.821Z,7.10
2024-02-03T05:50:18.761Z,7.15
2024-02-03T05:51:18.955Z,7.16
2024-02-03T05:52:18.714Z,7.17
2024-02-03T05:53:18.722Z,7.20
2024-02-03T05:54:18.809Z,7.17
2024-02-03T05:55:18.753Z,7.20
2024-02-03T05:56:18.647Z,7.17
2024-02-03T05:57:18.785Z,7.17
2024-02-03T05:58:18.684Z,7.16
2024-02-03T05:59:30.226Z,7.15
2024-02-03T06:00:18.806Z,7.15
2024-02-03T06:01:18.689Z,7.12
2024-02-03T06:02:18.643Z,7.12
2024-02-03T06:03:18.675Z,7.13
2024-02-03T06:04:18.736Z,7.15
2024-02-03T06:05:18.633Z,7.13
2024-02-03T06:06:23.146Z,7.13
2024-02-03T06:07:19.089Z,7.12
2024-02-03T06:08:18.667Z,7.12
2024-02-03T06:09:18.522Z,7.13
2024-02-03T06:10:18.546Z,7.13
2024-02-03T06:11:18.619Z,7.12
2024-02-03T06:12:18.639Z,7.12
2024-02-03T06:13:18.655Z,7.10
2024-02-03T06:14:18.487Z,7.09
2024-02-03T06:15:18.567Z,7.06
2024-02-03T06:16:18.545Z,7.05
2024-02-03T06:17:18.423Z,7.05
2024-02-03T06:18:18.668Z,7.05
2024-02-03T06:19:18.657Z,7.02
2024-02-03T06:20:18.513Z,7.02
2024-02-03T06:21:18.681Z,6.98
2024-02-03T06:22:18.457Z,6.98
2024-02-03T06:23:18.372Z,6.98
2024-02-03T06:24:18.469Z,6.99
2024-02-03T06:25:18.396Z,6.99
2024-02-03T06:26:18.453Z,6.97
2024-02-03T06:27:18.341Z,6.98
2024-02-03T06:28:18.370Z,6.98
2024-02-03T06:29:18.301Z,6.98
2024-02-03T06:30:18.395Z,6.94
2024-02-03T06:31:18.368Z,6.94
2024-02-03T06:32:18.269Z,6.92
2024-02-03T06:33:18.489Z,6.94
2024-02-03T06:34:18.329Z,6.95
2024-02-03T06:35:18.228Z,6.95
2024-02-03T06:36:18.453Z,6.92
2024-02-03T06:37:18.264Z,6.94
2024-02-03T06:38:18.242Z,6.92
2024-02-03T06:39:18.400Z,6.92
2024-02-03T06:40:18.287Z,6.95
2024-02-03T06:41:18.259Z,6.95
2024-02-03T06:42:18.429Z,6.95
2024-02-03T06:43:18.208Z,6.95
2024-02-03T06:44:18.196Z,6.95
2024-02-03T06:45:18.204Z,6.95
2024-02-03T06:46:18.313Z,6.95
2024-02-03T06:47:18.189Z,6.98
2024-02-03T06:48:18.433Z,6.98
2024-02-03T06:49:18.179Z,6.98
2024-02-03T06:50:18.124Z,6.99
2024-02-03T06:51:18.189Z,7.02
2024-02-03T06:52:18.138Z,7.02
2024-02-03T06:53:18.111Z,7.02
2024-02-03T06:54:18.139Z,7.05
2024-02-03T06:55:18.094Z,7.05
2024-02-03T06:56:18.148Z,7.05
2024-02-03T06:57:18.269Z,7.06
2024-02-03T06:58:18.075Z,7.09
2024-02-03T06:59:18.037Z,7.09
2024-02-03T07:00:18.087Z,7.10
2024-02-03T07:01:18.268Z,7.12
2024-02-03T07:02:17.998Z,7.12
2024-02-03T07:03:18.053Z,7.13
2024-02-03T07:04:18.118Z,7.16
2024-02-03T07:05:18.005Z,7.16
2024-02-03T07:06:18.208Z,7.20
2024-02-03T07:07:18.058Z,7.20
2024-02-03T07:08:18.066Z,7.21
2024-02-03T07:09:18.006Z,7.24
2024-02-03T07:10:17.998Z,7.27
2024-02-03T07:11:17.972Z,7.27
2024-02-03T07:12:17.951Z,7.27
2024-02-03T07:13:17.893Z,7.30
2024-02-03T07:14:17.922Z,7.31
2024-02-03T07:15:17.908Z,7.31
2024-02-03T07:16:17.825Z,7.34
2024-02-03T07:17:17.886Z,7.34
2024-02-03T07:18:18.135Z,7.35
2024-02-03T07:19:17.978Z,7.37
2024-02-03T07:20:17.928Z,7.37
2024-02-03T07:21:18.039Z,7.37
2024-02-03T07:22:17.763Z,7.35
2024-02-03T07:23:17.887Z,7.37
2024-02-03T07:24:17.947Z,7.37
2024-02-03T07:25:17.906Z,7.40
2024-02-03T07:26:18.003Z,7.40
2024-02-03T07:27:17.809Z,7.42
2024-02-03T07:28:17.856Z,7.43
2024-02-03T07:29:17.783Z,7.43
2024-02-03T07:30:17.844Z,7.45
2024-02-03T07:31:17.961Z,7.46
2024-02-03T07:32:17.737Z,7.45
2024-02-03T07:33:18.005Z,7.46
2024-02-03T07:34:17.818Z,7.49
2024-02-03T07:35:17.943Z,7.49
2024-02-03T07:36:18.112Z,7.50
2024-02-03T07:37:17.860Z,7.52
2024-02-03T07:38:17.763Z,7.53
2024-02-03T07:39:17.607Z,7.55
2024-02-03T07:40:17.697Z,7.57
2024-02-03T07:41:17.734Z,7.58
2024-02-03T07:42:17.699Z,7.58
2024-02-03T07:43:19.860Z,7.60
2024-02-03T07:44:17.663Z,7.61
2024-02-03T07:45:17.677Z,7.63
2024-02-03T07:46:17.746Z,7.67
2024-02-03T07:47:17.569Z,7.67
2024-02-03T07:48:17.764Z,7.69
2024-02-03T07:49:17.615Z,7.71
2024-02-03T07:50:17.577Z,7.71
2024-02-03T07:51:17.669Z,7.71
2024-02-03T07:52:17.562Z,7.68
2024-02-03T07:53:17.562Z,7.71
2024-02-03T07:54:17.551Z,7.71
2024-02-03T07:55:17.548Z,7.74
2024-02-03T07:56:17.603Z,7.72
2024-02-03T07:57:17.489Z,7.69
2024-02-03T07:58:17.575Z,7.71
2024-02-03T07:59:17.486Z,7.72
2024-02-03T08:00:17.520Z,7.74
2024-02-03T08:01:17.615Z,7.74
2024-02-03T08:02:17.462Z,7.74
2024-02-03T08:03:17.481Z,7.77
2024-02-03T08:04:17.564Z,7.79
2024-02-03T08:05:17.548Z,7.79
2024-02-03T08:06:17.571Z,7.82
2024-02-03T08:07:17.395Z,7.82
2024-02-03T08:08:17.434Z,7.85
2024-02-03T08:09:17.422Z,7.86
2024-02-03T08:10:17.364Z,7.87
2024-02-03T08:11:17.458Z,7.86
2024-02-03T08:12:17.408Z,7.90
2024-02-03T08:13:17.334Z,7.93
2024-02-03T08:14:17.301Z,7.97
2024-02-03T08:15:17.392Z,7.98
2024-02-03T08:16:17.406Z,8.01
2024-02-03T08:17:17.333Z,8.04
2024-02-03T08:18:17.424Z,8.05
2024-02-03T08:19:17.402Z,8.05
2024-02-03T08:20:17.241Z,8.08
2024-02-03T08:21:17.398Z,8.10
2024-02-03T08:22:17.229Z,8.15
2024-02-03T08:23:17.236Z,8.16
2024-02-03T08:24:17.187Z,8.19
2024-02-03T08:25:17.163Z,8.26
2024-02-03T08:26:17.291Z,8.28
2024-02-03T08:27:17.240Z,8.34
2024-02-03T08:28:17.211Z,8.37
2024-02-03T08:29:17.106Z,8.40
2024-02-03T08:30:17.215Z,8.43
2024-02-03T08:31:17.252Z,8.47
2024-02-03T08:32:17.141Z,8.47
2024-02-03T08:33:17.396Z,8.50
2024-02-03T08:34:17.360Z,8.55
2024-02-03T08:35:19.093Z,8.55
2024-02-03T08:36:17.392Z,8.58
2024-02-03T08:37:17.033Z,8.58
2024-02-03T08:38:17.188Z,8.62
2024-02-03T08:40:17.116Z,8.70
2024-02-03T08:41:17.165Z,8.71
2024-02-03T08:42:17.220Z,8.76
2024-02-03T08:43:17.054Z,8.84
2024-02-03T08:44:17.079Z,8.87
2024-02-03T08:45:17.076Z,8.87
2024-02-03T08:46:17.135Z,8.92
2024-02-03T08:47:17.014Z,8.95
2024-02-03T08:48:17.249Z,9.10
2024-02-03T08:49:17.101Z,9.21
2024-02-03T08:50:17.024Z,9.29
2024-02-03T08:51:17.114Z,9.26
2024-02-03T08:52:17.014Z,9.26
2024-02-03T08:53:17.013Z,9.29
2024-02-03T08:54:16.979Z,9.23
2024-02-03T08:55:17.009Z,9.23
2024-02-03T08:56:17.029Z,9.23
2024-02-03T08:57:17.020Z,9.29
2024-02-03T08:58:16.985Z,9.29
2024-02-03T08:59:16.943Z,9.31
2024-02-03T09:00:17.003Z,9.32
2024-02-03T09:01:17.135Z,9.35
2024-02-03T09:02:16.868Z,9.39
2024-02-03T09:03:16.885Z,9.51
2024-02-03T09:04:16.924Z,9.50
2024-02-03T09:05:16.903Z,9.56
2024-02-03T09:06:16.986Z,9.60
2024-02-03T09:07:16.881Z,9.66
2024-02-03T09:08:16.814Z,9.57
2024-02-03T09:09:16.867Z,9.76
2024-02-03T09:10:16.816Z,10.11
2024-02-03T09:11:17.003Z,10.97
2024-02-03T09:12:16.838Z,11.69
2024-02-03T09:13:16.870Z,12.16
2024-02-03T09:14:16.827Z,12.56
2024-02-03T09:15:16.854Z,13.00
2024-02-03T09:16:16.909Z,12.57
2024-02-03T09:17:16.769Z,12.53
2024-02-03T09:18:16.960Z,12.21
2024-02-03T09:19:16.941Z,11.73
2024-02-03T09:20:16.767Z,11.36
2024-02-03T09:21:19.769Z,11.21
2024-02-03T09:22:16.689Z,11.19
2024-02-03T09:23:16.666Z,11.15
2024-02-03T09:24:16.888Z,11.10
2024-02-03T09:25:16.717Z,11.06
2024-02-03T09:26:16.811Z,11.27
2024-02-03T09:27:16.737Z,11.17
2024-02-03T09:28:16.677Z,11.11
2024-02-03T09:29:16.659Z,11.21
2024-02-03T09:30:16.633Z,11.29
2024-02-03T09:31:16.684Z,11.28
2024-02-03T09:32:16.623Z,11.33
2024-02-03T09:33:16.697Z,11.33
2024-02-03T09:34:16.669Z,11.24
2024-02-03T09:35:16.581Z,11.28
2024-02-03T09:36:16.762Z,11.29
2024-02-03T09:38:16.555Z,11.32
2024-02-03T09:39:16.593Z,11.35
2024-02-03T09:40:16.526Z,11.39
2024-02-03T09:41:16.602Z,11.52
2024-02-03T09:42:16.528Z,11.58
2024-02-03T09:43:16.515Z,11.57
2024-02-03T09:44:16.538Z,11.40
2024-02-03T09:45:16.560Z,11.37
2024-02-03T09:46:16.600Z,11.40
2024-02-03T09:47:16.450Z,11.37
2024-02-03T09:48:16.532Z,11.37
2024-02-03T09:49:16.633Z,11.37
2024-02-03T09:50:16.424Z,11.40
2024-02-03T09:51:16.605Z,12.07
2024-02-03T09:52:16.436Z,13.70
2024-02-03T09:53:16.430Z,14.46
2024-02-03T09:54:16.638Z,14.78
2024-02-03T09:55:16.409Z,15.75
2024-02-03T09:56:16.472Z,16.38
2024-02-03T09:57:16.448Z,16.88
2024-02-03T09:58:16.366Z,17.08
2024-02-03T09:59:16.325Z,17.26
2024-02-03T10:00:16.327Z,16.91
2024-02-03T10:01:16.649Z,16.88
2024-02-03T10:02:16.358Z,17.03
2024-02-03T10:03:16.413Z,17.07
2024-02-03T10:04:16.418Z,16.96
2024-02-03T10:05:16.362Z,17.00
2024-02-03T10:06:16.500Z,16.97
2024-02-03T10:07:16.274Z,17.01
2024-02-03T10:08:16.304Z,17.36
2024-02-03T10:09:16.352Z,17.68
2024-02-03T10:11:16.371Z,17.81
2024-02-03T10:12:17.790Z,17.90
2024-02-03T10:13:16.228Z,17.84
2024-02-03T10:14:16.256Z,17.55
2024-02-03T10:15:16.223Z,17.30
2024-02-03T10:16:16.273Z,17.15
2024-02-03T10:17:16.166Z,17.00
2024-02-03T10:18:16.336Z,17.11
2024-02-03T10:19:16.440Z,17.33
2024-02-03T10:20:16.328Z,17.58
2024-02-03T10:21:16.310Z,17.95
2024-02-03T10:22:16.164Z,18.15
2024-02-03T10:23:16.248Z,18.07
2024-02-03T10:24:16.178Z,17.93
2024-02-03T10:25:18.038Z,18.11
2024-02-03T10:26:16.105Z,18.36
2024-02-03T10:27:16.166Z,18.30
2024-02-03T10:28:16.071Z,18.78
2024-02-03T10:29:16.055Z,19.31
2024-02-03T10:30:16.201Z,19.69
2024-02-03T10:31:16.272Z,20.08
2024-02-03T10:32:16.100Z,20.43
2024-02-03T10:33:16.152Z,20.54
2024-02-03T10:34:16.155Z,20.54
2024-02-03T10:35:16.046Z,20.39
2024-02-03T10:36:16.194Z,20.50
2024-02-03T10:37:16.125Z,20.52
2024-02-03T10:38:16.021Z,20.85
2024-02-03T10:39:16.061Z,21.86
2024-02-03T10:40:16.015Z,22.43
2024-02-03T10:41:16.131Z,22.58
2024-02-03T10:42:15.958Z,22.88
2024-02-03T10:43:15.975Z,23.36
2024-02-03T10:44:16.055Z,23.31
2024-02-03T10:45:15.966Z,23.47
2024-02-03T10:46:16.003Z,23.66
2024-02-03T10:47:15.910Z,22.75
2024-02-03T10:48:17.509Z,22.82
2024-02-03T10:49:16.025Z,22.73
2024-02-03T10:50:15.870Z,22.58
2024-02-03T10:51:16.107Z,21.90
2024-02-03T10:52:15.907Z,21.21
2024-02-03T10:53:15.903Z,21.03
2024-02-03T10:54:15.911Z,20.76
2024-02-03T10:55:15.907Z,20.94
2024-02-03T10:56:15.870Z,21.49
2024-02-03T10:57:15.795Z,21.37
2024-02-03T10:58:15.786Z,21.49
2024-02-03T10:59:15.826Z,21.32
2024-02-03T11:00:15.774Z,21.13
2024-02-03T11:01:15.957Z,20.92
2024-02-03T11:02:15.805Z,20.41
2024-02-03T11:03:15.821Z,20.14
2024-02-03T11:04:15.872Z,19.91
2024-02-03T11:05:15.918Z,19.77
2024-02-03T11:06:15.874Z,19.23
2024-02-03T11:07:15.736Z,18.78
2024-02-03T11:08:15.791Z,18.29
2024-02-03T11:09:15.769Z,18.32
2024-02-03T11:10:15.701Z,18.23
2024-02-03T11:11:15.748Z,18.30
2024-02-03T11:12:15.768Z,18.37
2024-02-03T11:13:15.659Z,18.82
2024-02-03T11:14:15.760Z,19.50
2024-02-03T11:15:15.701Z,20.18
2024-02-03T11:16:15.735Z,21.04
2024-02-03T11:17:15.650Z,21.83
2024-02-03T11:18:15.859Z,22.55
2024-02-03T11:19:15.648Z,22.98
2024-02-03T11:20:15.672Z,23.47
2024-02-03T11:21:15.714Z,24.10
2024-02-03T11:22:15.617Z,24.64
2024-02-03T11:23:15.607Z,25.28
2024-02-03T11:24:15.590Z,25.30
2024-02-03T11:25:15.537Z,25.64
2024-02-03T11:26:15.638Z,26.15
2024-02-03T11:27:15.556Z,26.58
2024-02-03T11:28:15.553Z,27.02
2024-02-03T11:29:15.527Z,27.36
2024-02-03T11:30:15.565Z,27.19
2024-02-03T11:31:15.615Z,26.80
2024-02-03T11:32:15.597Z,26.73
2024-02-03T11:33:15.647Z,26.72
2024-02-03T11:34:15.657Z,26.89
2024-02-03T11:35:15.478Z,27.21
2024-02-03T11:36:15.713Z,26.95
2024-02-03T11:37:15.684Z,26.85
2024-02-03T11:38:15.450Z,26.66
2024-02-03T11:39:15.440Z,26.99
2024-02-03T11:40:15.413Z,27.07
2024-02-03T11:41:15.454Z,27.06
2024-02-03T11:42:15.407Z,27.46
2024-02-03T11:43:15.521Z,27.70
2024-02-03T11:44:15.391Z,27.75
2024-02-03T11:45:15.475Z,27.87
2024-02-03T11:46:15.440Z,28.12
2024-02-03T11:47:15.375Z,28.18
2024-02-03T11:48:15.422Z,28.44
2024-02-03T11:49:15.453Z,28.58
2024-02-03T11:50:15.362Z,28.83
2024-02-03T11:51:15.380Z,28.70
2024-02-03T11:52:15.302Z,28.74
2024-02-03T11:53:15.281Z,28.52
2024-02-03T11:54:15.323Z,28.44
2024-02-03T11:55:15.319Z,28.21
2024-02-03T11:56:15.337Z,28.31
2024-02-03T11:57:15.276Z,28.31
2024-02-03T11:58:15.231Z,28.15
2024-02-03T11:59:15.241Z,27.87
2024-02-03T12:00:15.252Z,28.04
2024-02-03T12:01:15.324Z,28.31
2024-02-03T12:02:15.185Z,28.29
2024-02-03T12:03:15.313Z,28.55
2024-02-03T12:04:15.214Z,28.68
2024-02-03T12:05:15.214Z,28.64
2024-02-03T12:06:15.294Z,29.00
2024-02-03T12:07:15.291Z,29.30
2024-02-03T12:08:15.200Z,29.12
2024-02-03T12:09:15.213Z,29.28
2024-02-03T12:10:15.184Z,29.23
2024-02-03T12:11:15.191Z,29.06
2024-02-03T12:12:15.123Z,29.06
2024-02-03T12:13:15.110Z,29.09
2024-02-03T12:14:15.145Z,28.49
2024-02-03T12:15:15.109Z,28.51
2024-02-03T12:16:15.179Z,27.72
2024-02-03T12:17:15.080Z,28.15
2024-02-03T12:18:15.185Z,28.44
2024-02-03T12:19:15.387Z,28.55
2024-02-03T12:20:15.074Z,28.66
2024-02-03T12:21:15.143Z,29.09
2024-02-03T12:22:15.162Z,29.00
2024-02-03T12:23:19.687Z,28.90
2024-02-03T12:24:15.016Z,28.58
2024-02-03T12:25:15.020Z,28.55
2024-02-03T12:26:15.064Z,28.44
2024-02-03T12:27:14.989Z,28.36
2024-02-03T12:28:15.050Z,28.30
2024-02-03T12:29:14.987Z,28.04
2024-02-03T12:30:14.955Z,27.82
2024-02-03T12:31:15.026Z,27.63
2024-02-03T12:32:14.912Z,27.78
2024-02-03T12:33:15.055Z,27.49
2024-02-03T12:34:15.161Z,27.49
2024-02-03T12:35:14.945Z,27.49
2024-02-03T12:36:14.940Z,27.10
2024-02-03T12:37:14.858Z,26.54
2024-02-03T12:38:14.894Z,26.10
2024-02-03T12:39:14.895Z,25.27
2024-02-03T12:40:14.878Z,24.39
2024-02-03T12:41:14.950Z,23.60
2024-02-03T12:42:14.851Z,22.72
2024-02-03T12:43:14.853Z,21.92
2024-02-03T12:44:14.845Z,21.32
2024-02-03T12:45:14.852Z,20.79
2024-02-03T12:46:14.863Z,20.29
2024-02-03T12:47:14.817Z,19.84
2024-02-03T12:48:14.888Z,19.51
2024-02-03T12:49:14.961Z,19.16
2024-02-03T12:50:14.945Z,18.82
2024-02-03T12:51:14.953Z,18.51
2024-02-03T12:52:15.852Z,18.35
2024-02-03T12:53:14.764Z,18.29
2024-02-03T12:54:14.735Z,18.11
2024-02-03T12:55:14.768Z,18.02
2024-02-03T12:56:14.791Z,17.97
2024-02-03T12:57:14.772Z,17.89
2024-02-03T12:58:14.666Z,17.84
2024-02-03T12:59:14.693Z,17.74
2024-02-03T13:00:14.736Z,17.64
2024-02-03T13:01:14.865Z,17.52
2024-02-03T13:02:14.669Z,17.49
2024-02-03T13:03:14.875Z,17.28
2024-02-03T13:04:14.645Z,17.12
2024-02-03T13:05:16.404Z,16.97
2024-02-03T13:06:14.883Z,16.93
2024-02-03T13:07:14.574Z,16.82
2024-02-03T13:08:14.609Z,16.75
2024-02-03T13:09:14.636Z,16.67
2024-02-03T13:10:14.611Z,16.67
2024-02-03T13:11:17.226Z,16.48
2024-02-03T13:12:14.633Z,16.39
2024-02-03T13:13:14.530Z,16.38